Time;durP1;ratioP1;P1;durP2;ratioP2;P2;SDS_P1;SDS_P2;PMS_P1;PMS_P2;Temp;Humidity;BMP_temperature;BMP_pressure;BME280_temperature;BME280_humidity;BME280_pressure;Samples;Min_cycle;Max_cycle;Signal;HPM_P1;HPM_P2
2021/08/29 00:00:19;;;;;;;13.67;9.43;;;15.10;99.90;;;;;;5013420;28;20425;-69
2021/08/29 00:02:47;;;;;;;10.10;8.53;;;15.20;99.90;;;;;;5013226;28;20491;-69
2021/08/29 00:05:16;;;;;;;10.07;8.60;;;15.20;99.90;;;;;;5013179;28;20411;-68
2021/08/29 00:07:46;;;;;;;12.17;8.73;;;15.30;99.90;;;;;;5012645;28;20941;-69
2021/08/29 00:10:14;;;;;;;9.93;8.10;;;15.30;99.90;;;;;;5013156;28;20429;-69
2021/08/29 00:12:43;;;;;;;10.17;8.73;;;15.20;99.90;;;;;;5011443;28;20431;-70
2021/08/29 00:15:11;;;;;;;9.10;6.87;;;15.20;99.90;;;;;;5013041;28;20781;-69
2021/08/29 00:17:40;;;;;;;8.30;7.07;;;15.20;99.90;;;;;;5012557;28;20920;-69
2021/08/29 00:20:09;;;;;;;8.03;6.30;;;15.20;99.90;;;;;;5013188;28;20408;-69
2021/08/29 00:22:37;;;;;;;8.83;6.70;;;15.20;99.90;;;;;;5012417;28;20440;-69
2021/08/29 00:25:09;;;;;;;6.70;5.80;;;15.20;99.90;;;;;;5012899;28;20404;-69
2021/08/29 00:27:37;;;;;;;8.83;6.80;;;15.20;99.90;;;;;;5012604;28;20407;-69
2021/08/29 00:30:06;;;;;;;10.50;7.37;;;15.20;99.90;;;;;;5012304;28;20450;-69
2021/08/29 00:32:34;;;;;;;11.83;6.97;;;15.20;99.90;;;;;;5011684;28;20423;-69
2021/08/29 00:35:02;;;;;;;8.70;6.13;;;15.20;99.90;;;;;;5013263;28;20485;-69
2021/08/29 00:37:30;;;;;;;8.30;7.00;;;15.20;99.90;;;;;;5011023;28;20431;-69
2021/08/29 00:39:58;;;;;;;8.60;7.70;;;15.10;99.90;;;;;;5011340;28;20422;-68
2021/08/29 00:42:28;;;;;;;7.30;6.27;;;15.20;99.90;;;;;;5011333;28;20419;-69
2021/08/29 00:44:57;;;;;;;7.93;5.80;;;15.20;99.90;;;;;;5011765;28;20446;-69
2021/08/29 00:47:25;;;;;;;13.53;7.17;;;15.20;99.90;;;;;;5011057;28;20407;-69
2021/08/29 00:49:53;;;;;;;9.37;7.07;;;15.20;99.90;;;;;;5010583;28;20528;-68
2021/08/29 00:52:21;;;;;;;7.30;6.07;;;15.20;99.90;;;;;;5012120;28;20445;-69
2021/08/29 00:54:50;;;;;;;10.70;6.33;;;15.20;99.90;;;;;;5010857;28;20474;-69
2021/08/29 00:57:19;;;;;;;11.80;8.17;;;15.20;99.90;;;;;;5011155;28;20499;-69
2021/08/29 00:59:55;;;;;;;6.87;6.17;;;15.20;99.90;;;;;;5011320;28;20430;-69
2021/08/29 01:02:27;;;;;;;11.10;6.93;;;15.20;99.90;;;;;;5011164;28;20470;-69
2021/08/29 01:05:04;;;;;;;11.33;7.63;;;15.20;99.90;;;;;;5012254;28;20887;-69
2021/08/29 01:07:48;;;;;;;6.60;5.50;;;15.20;99.90;;;;;;5010731;28;20432;-69
2021/08/29 01:10:19;;;;;;;9.53;6.80;;;15.20;99.90;;;;;;5012557;28;20816;-69
2021/08/29 01:13:10;;;;;;;6.70;5.40;;;15.20;99.90;;;;;;5011064;28;20454;-68
2021/08/29 01:15:43;;;;;;;7.83;6.80;;;15.10;99.90;;;;;;5012297;28;20462;-68
2021/08/29 01:18:12;;;;;;;7.53;6.67;;;15.00;99.90;;;;;;5010799;28;20414;-68
2021/08/29 01:20:51;;;;;;;8.93;6.70;;;15.00;99.90;;;;;;5010911;28;20412;-68
2021/08/29 01:23:22;;;;;;;8.20;6.97;;;15.00;99.90;;;;;;5010636;28;20522;-69
2021/08/29 01:25:57;;;;;;;9.00;6.20;;;15.00;99.90;;;;;;5010654;28;20416;-68
2021/08/29 01:28:35;;;;;;;9.63;7.77;;;15.00;99.90;;;;;;5010787;28;20448;-68
2021/08/29 01:31:05;;;;;;;6.77;6.07;;;15.00;99.90;;;;;;5012172;28;20783;-69
2021/08/29 01:33:34;;;;;;;7.20;6.40;;;15.00;99.90;;;;;;5010421;28;20760;-68
2021/08/29 01:36:10;;;;;;;7.23;5.53;;;15.00;99.90;;;;;;5010599;28;20521;-68
2021/08/29 01:38:38;;;;;;;7.17;6.43;;;15.00;99.90;;;;;;5010403;28;20411;-68
2021/08/29 01:41:07;;;;;;;6.43;4.90;;;15.00;99.90;;;;;;5009802;28;20504;-69
2021/08/29 01:43:35;;;;;;;6.77;6.07;;;15.10;99.90;;;;;;5011493;28;20412;-68
2021/08/29 01:46:05;;;;;;;5.23;4.73;;;15.10;99.90;;;;;;5015209;28;20425;-69
2021/08/29 01:48:36;;;;;;;8.77;5.77;;;15.10;99.90;;;;;;5012047;28;20415;-69
2021/08/29 01:51:09;;;;;;;9.87;6.47;;;15.10;99.90;;;;;;5017170;28;20452;-68
2021/08/29 01:53:41;;;;;;;8.13;4.83;;;15.10;99.90;;;;;;5015364;28;20515;-68
2021/08/29 01:56:52;;;;;;;7.47;6.67;;;15.10;99.90;;;;;;5017077;28;20997;-68
2021/08/29 01:59:21;;;;;;;7.97;7.07;;;15.00;99.90;;;;;;5009914;28;20438;-70
2021/08/29 02:01:51;;;;;;;7.47;5.83;;;15.00;99.90;;;;;;5009756;28;20974;-67
2021/08/29 02:04:21;;;;;;;5.87;4.97;;;15.00;99.90;;;;;;5009368;28;20419;-68
2021/08/29 02:07:04;;;;;;;7.97;5.20;;;14.90;99.90;;;;;;5009233;28;20415;-68
2021/08/29 02:09:35;;;;;;;10.60;5.90;;;15.00;99.90;;;;;;5009454;28;20419;-67
2021/08/29 02:12:03;;;;;;;7.03;4.90;;;14.90;99.90;;;;;;5009823;28;20458;-68
2021/08/29 02:14:44;;;;;;;6.73;5.20;;;14.90;99.90;;;;;;5009489;28;20443;-68
2021/08/29 02:17:14;;;;;;;5.30;4.07;;;15.00;99.90;;;;;;5010380;28;20402;-68
2021/08/29 02:19:44;;;;;;;6.07;5.00;;;15.00;99.90;;;;;;5009717;28;20429;-69
2021/08/29 02:22:13;;;;;;;5.60;4.87;;;15.00;99.90;;;;;;5009625;28;20526;-68
2021/08/29 02:24:46;;;;;;;5.60;4.47;;;15.00;99.90;;;;;;5009386;28;20451;-68
2021/08/29 02:27:17;;;;;;;5.00;4.57;;;15.00;99.90;;;;;;5010486;28;20504;-68
2021/08/29 02:29:47;;;;;;;5.77;4.30;;;15.00;99.90;;;;;;5009090;28;20433;-68
2021/08/29 02:32:20;;;;;;;4.80;4.30;;;15.00;99.90;;;;;;5009323;28;20842;-69
2021/08/29 02:34:49;;;;;;;6.50;5.20;;;15.00;99.90;;;;;;5009467;28;20526;-69
2021/08/29 02:37:26;;;;;;;3.53;3.07;;;15.00;99.90;;;;;;5008961;28;20417;-67
2021/08/29 02:40:00;;;;;;;5.63;4.50;;;15.00;99.90;;;;;;5009285;28;20893;-69
2021/08/29 02:42:31;;;;;;;5.40;3.73;;;15.00;99.90;;;;;;5009264;28;20471;-69
2021/08/29 02:45:10;;;;;;;4.00;3.60;;;15.00;99.90;;;;;;5008921;28;20418;-69
2021/08/29 02:47:41;;;;;;;3.50;2.80;;;15.10;99.90;;;;;;5008690;28;20951;-68
2021/08/29 02:50:10;;;;;;;4.20;3.40;;;15.10;99.90;;;;;;5010334;28;20412;-68
2021/08/29 02:52:44;;;;;;;4.60;3.40;;;15.00;99.90;;;;;;5008739;28;20477;-68
2021/08/29 02:55:14;;;;;;;2.67;2.27;;;14.90;99.90;;;;;;5008912;28;20496;-68
2021/08/29 02:57:46;;;;;;;3.60;2.50;;;14.90;99.90;;;;;;5008698;28;20462;-68
2021/08/29 03:00:37;;;;;;;3.00;2.50;;;15.00;99.90;;;;;;4999703;28;20792;-68
2021/08/29 03:03:18;;;;;;;3.87;2.73;;;14.90;99.90;;;;;;5008654;28;20452;-68
2021/08/29 03:05:47;;;;;;;3.30;2.73;;;14.90;99.90;;;;;;5051904;23;20581;-71
2021/08/29 03:08:15;;;;;;;3.80;2.40;;;14.90;99.90;;;;;;5052174;28;20429;-72
2021/08/29 03:10:43;;;;;;;2.47;2.23;;;14.90;99.90;;;;;;5035764;28;20963;-73
2021/08/29 03:13:15;;;;;;;3.07;2.67;;;14.90;99.90;;;;;;5052157;28;20452;-72
2021/08/29 03:15:49;;;;;;;2.57;2.37;;;14.90;99.90;;;;;;5052963;28;20489;-72
2021/08/29 03:18:44;;;;;;;1.93;1.77;;;14.80;99.90;;;;;;5035939;28;20390;-71
2021/08/29 03:21:31;;;;;;;1.73;1.30;;;14.90;99.90;;;;;;5053697;28;20382;-72
2021/08/29 03:24:00;;;;;;;1.77;1.43;;;14.80;99.90;;;;;;5053552;28;20398;-72
2021/08/29 03:26:29;;;;;;;1.53;1.30;;;14.80;99.90;;;;;;5036123;28;20951;-73
2021/08/29 03:29:07;;;;;;;2.10;1.50;;;14.80;99.90;;;;;;5037173;28;20519;-73
2021/08/29 03:31:35;;;;;;;1.60;1.40;;;14.80;99.90;;;;;;5036107;28;20508;-72
2021/08/29 03:34:06;;;;;;;1.43;1.00;;;14.80;99.90;;;;;;5036186;28;20955;-71
2021/08/29 03:36:35;;;;;;;3.33;1.10;;;14.80;99.90;;;;;;5035324;28;20967;-73
2021/08/29 03:39:05;;;;;;;2.10;1.77;;;14.70;99.90;;;;;;5035812;28;20485;-72
2021/08/29 03:41:35;;;;;;;2.13;1.40;;;14.80;99.90;;;;;;5036232;28;20438;-73
2021/08/29 03:44:05;;;;;;;2.10;1.40;;;14.70;99.90;;;;;;5036387;28;20783;-74
2021/08/29 03:46:37;;;;;;;1.70;1.20;;;14.70;99.90;;;;;;5036173;28;20436;-72
2021/08/29 03:49:18;;;;;;;1.73;1.57;;;14.70;99.90;;;;;;5036709;28;20414;-72
2021/08/29 03:51:47;;;;;;;2.47;1.40;;;14.70;99.90;;;;;;5036541;28;20872;-73
2021/08/29 03:54:16;;;;;;;1.77;1.40;;;14.70;99.90;;;;;;5036157;28;20441;-72
2021/08/29 03:56:46;;;;;;;1.60;1.30;;;14.70;99.90;;;;;;5036494;28;21011;-72
2021/08/29 03:59:15;;;;;;;1.60;1.17;;;14.70;99.90;;;;;;5037976;28;20999;-72
2021/08/29 04:01:44;;;;;;;1.63;1.53;;;14.80;99.90;;;;;;5037417;28;20402;-72
2021/08/29 04:04:12;;;;;;;1.50;1.10;;;14.90;99.90;;;;;;5037143;28;20498;-73
2021/08/29 04:06:43;;;;;;;1.30;0.87;;;14.90;99.90;;;;;;5040663;28;20466;-73
2021/08/29 04:09:19;;;;;;;1.60;1.17;;;14.90;99.90;;;;;;5040490;28;20530;-72
2021/08/29 04:11:49;;;;;;;1.73;1.37;;;14.80;99.90;;;;;;5038520;28;20439;-73
2021/08/29 04:14:28;;;;;;;1.87;1.50;;;14.70;99.90;;;;;;5057695;28;20447;-72
2021/08/29 04:16:58;;;;;;;2.67;1.30;;;14.80;99.90;;;;;;5042284;28;20458;-72
2021/08/29 04:19:42;;;;;;;1.30;1.20;;;14.80;99.90;;;;;;5043743;28;20414;-72
2021/08/29 04:22:13;;;;;;;1.57;1.30;;;14.90;99.90;;;;;;5061034;28;20419;-72
2021/08/29 04:24:42;;;;;;;3.30;2.03;;;15.00;99.90;;;;;;5043848;28;20465;-72
2021/08/29 04:27:11;;;;;;;4.67;2.33;;;15.10;99.90;;;;;;5043806;28;20435;-72
2021/08/29 04:29:41;;;;;;;2.90;1.63;;;15.10;99.90;;;;;;5044803;28;20433;-73
2021/08/29 04:32:11;;;;;;;2.80;1.77;;;15.10;99.90;;;;;;5042758;28;20421;-72
2021/08/29 04:34:40;;;;;;;1.73;1.60;;;15.20;99.90;;;;;;5061706;28;20414;-73
2021/08/29 04:37:19;;;;;;;2.13;1.27;;;15.20;99.90;;;;;;5043571;28;20549;-72
2021/08/29 04:39:53;;;;;;;1.97;1.77;;;15.30;99.90;;;;;;5043538;28;20431;-72
2021/08/29 04:42:24;;;;;;;2.87;2.03;;;15.20;99.90;;;;;;5042217;28;20435;-75
2021/08/29 04:44:53;;;;;;;3.00;2.43;;;15.10;99.90;;;;;;5041983;28;20466;-71
2021/08/29 04:47:21;;;;;;;1.83;1.43;;;15.10;99.90;;;;;;5042426;28;20435;-71
2021/08/29 04:49:56;;;;;;;2.10;1.63;;;15.20;99.90;;;;;;5060227;28;20381;-72
2021/08/29 04:52:27;;;;;;;3.50;2.40;;;15.30;99.90;;;;;;5042363;28;20443;-73
2021/08/29 04:54:59;;;;;;;2.40;2.20;;;15.40;99.90;;;;;;5043349;28;20809;-72
2021/08/29 04:57:29;;;;;;;2.97;2.40;;;15.40;99.90;;;;;;5042703;28;20932;-72
2021/08/29 04:59:57;;;;;;;3.00;2.50;;;15.40;99.90;;;;;;5042751;28;20410;-72
2021/08/29 05:02:25;;;;;;;2.97;2.30;;;15.50;99.90;;;;;;5042363;28;20658;-71
2021/08/29 05:04:54;;;;;;;2.90;2.40;;;15.50;99.90;;;;;;5059430;28;20433;-72
2021/08/29 05:07:22;;;;;;;2.80;2.33;;;15.50;99.90;;;;;;5042923;28;20511;-71
2021/08/29 05:09:51;;;;;;;3.10;2.30;;;15.50;99.90;;;;;;5038476;28;20448;-72
2021/08/29 05:12:19;;;;;;;4.03;2.63;;;15.50;99.90;;;;;;5035732;28;20504;-72
2021/08/29 05:14:47;;;;;;;5.30;3.20;;;15.50;99.90;;;;;;5035897;28;20449;-72
2021/08/29 05:17:16;;;;;;;5.10;4.10;;;15.40;99.90;;;;;;5035699;28;21008;-72
2021/08/29 05:19:50;;;;;;;5.13;3.40;;;15.50;99.90;;;;;;5036080;28;20810;-72
2021/08/29 05:22:44;;;;;;;4.20;3.63;;;15.40;99.90;;;;;;5053181;28;20487;-72
2021/08/29 05:25:32;;;;;;;4.50;3.43;;;15.40;99.90;;;;;;5054160;28;20820;-71
2021/08/29 05:28:00;;;;;;;6.23;4.20;;;15.40;99.90;;;;;;5035741;28;20744;-71
2021/08/29 05:30:30;;;;;;;7.50;4.30;;;15.40;99.90;;;;;;5036038;28;20813;-71
2021/08/29 05:32:58;;;;;;;5.50;3.43;;;15.40;99.90;;;;;;5035367;28;20844;-71
2021/08/29 05:35:27;;;;;;;5.50;3.87;;;15.40;99.90;;;;;;5035695;28;20550;-72
2021/08/29 05:37:59;;;;;;;4.70;3.70;;;15.50;99.90;;;;;;5035269;28;20449;-71
2021/08/29 05:40:46;;;;;;;3.87;3.50;;;15.60;99.90;;;;;;5053677;28;20485;-71
2021/08/29 05:43:33;;;;;;;4.13;3.33;;;15.60;99.90;;;;;;5053424;28;20549;-72
2021/08/29 05:46:02;;;;;;;5.10;4.00;;;15.60;99.90;;;;;;5035361;28;20458;-72
2021/08/29 05:48:30;;;;;;;4.10;3.63;;;15.60;99.90;;;;;;5053115;28;20402;-72
2021/08/29 05:51:01;;;;;;;6.47;4.70;;;15.70;99.90;;;;;;5035370;28;20412;-72
2021/08/29 05:53:30;;;;;;;4.50;3.37;;;15.60;99.90;;;;;;5035376;28;20836;-72
2021/08/29 05:56:00;;;;;;;3.90;3.60;;;15.60;99.90;;;;;;5035121;28;20564;-71
2021/08/29 05:58:28;;;;;;;5.43;4.10;;;15.60;99.90;;;;;;5034941;28;20449;-71
2021/08/29 06:00:59;;;;;;;7.40;4.20;;;15.70;99.90;;;;;;5035149;28;20422;-72
2021/08/29 06:03:28;;;;;;;7.33;4.67;;;15.60;99.90;;;;;;5035017;28;20776;-73
2021/08/29 06:06:00;;;;;;;5.53;3.90;;;15.70;99.90;;;;;;5034486;28;20473;-72
2021/08/29 06:08:40;;;;;;;7.13;3.70;;;15.70;99.90;;;;;;5034820;28;20439;-73
2021/08/29 06:11:09;;;;;;;5.43;4.40;;;15.80;99.90;;;;;;5034949;28;20413;-71
2021/08/29 06:13:38;;;;;;;4.87;4.30;;;15.80;99.90;;;;;;5053084;28;20496;-71
2021/08/29 06:16:06;;;;;;;5.80;4.87;;;15.90;99.90;;;;;;5034924;28;20470;-71
2021/08/29 06:18:34;;;;;;;4.87;3.60;;;15.90;99.90;;;;;;5052505;28;20434;-72
2021/08/29 06:21:04;;;;;;;5.30;3.70;;;15.60;99.90;;;;;;5034819;28;20518;-72
2021/08/29 06:23:33;;;;;;;4.47;3.83;;;15.50;99.90;;;;;;5034590;28;20764;-72
2021/08/29 06:26:21;;;;;;;4.83;3.73;;;15.40;99.90;;;;;;5052571;28;20422;-72
2021/08/29 06:29:07;;;;;;;5.83;4.13;;;15.40;99.90;;;;;;5052552;28;20428;-72
2021/08/29 06:31:56;;;;;;;5.90;4.97;;;15.50;99.90;;;;;;5052920;28;20887;-72
2021/08/29 06:34:42;;;;;;;4.87;3.50;;;15.60;99.90;;;;;;5052512;28;20520;-72
2021/08/29 06:37:19;;;;;;;6.93;4.80;;;15.60;99.90;;;;;;5034296;28;20463;-72
2021/08/29 06:39:47;;;;;;;4.90;4.00;;;15.50;99.90;;;;;;5052178;28;20800;-73
2021/08/29 06:42:16;;;;;;;4.47;2.77;;;15.50;99.90;;;;;;5034485;28;20443;-71
2021/08/29 06:44:49;;;;;;;4.20;3.00;;;15.50;99.90;;;;;;5034106;28;20958;-72
2021/08/29 06:47:36;;;;;;;7.00;4.00;;;15.40;99.90;;;;;;5052446;28;20373;-72
2021/08/29 06:50:40;;;;;;;4.67;3.93;;;15.40;99.90;;;;;;5051856;28;20526;-71
2021/08/29 06:53:46;;;;;;;4.80;4.30;;;15.30;99.90;;;;;;5051773;28;20512;-73
2021/08/29 06:56:34;;;;;;;4.80;3.77;;;15.30;99.90;;;;;;5020492;28;20418;-71
2021/08/29 06:59:11;;;;;;;5.37;4.23;;;15.40;99.90;;;;;;5051939;28;21004;-72
2021/08/29 07:01:39;;;;;;;5.33;3.70;;;15.50;99.90;;;;;;5033633;28;20401;-71
2021/08/29 07:04:08;;;;;;;6.50;3.97;;;15.60;99.90;;;;;;5033917;28;20972;-72
2021/08/29 07:06:37;;;;;;;4.03;3.20;;;15.60;99.90;;;;;;5033900;28;20479;-72
2021/08/29 07:09:24;;;;;;;4.93;4.00;;;15.60;99.90;;;;;;5052745;28;20808;-71
2021/08/29 07:11:52;;;;;;;3.90;2.80;;;15.70;99.90;;;;;;5034979;28;20436;-72
2021/08/29 07:14:51;;;;;;;4.67;3.03;;;15.80;99.90;;;;;;5052537;28;20440;-71
2021/08/29 07:17:19;;;;;;;4.27;3.63;;;15.80;99.90;;;;;;5033804;28;21138;-71
2021/08/29 07:19:47;;;;;;;4.33;3.50;;;15.90;99.90;;;;;;5033845;28;20488;-71
2021/08/29 07:22:34;;;;;;;5.27;3.73;;;15.90;99.90;;;;;;5051979;28;20389;-71
2021/08/29 07:25:21;;;;;;;4.00;3.40;;;15.90;99.90;;;;;;5052229;28;20437;-71
2021/08/29 07:28:08;;;;;;;5.80;3.20;;;15.90;99.90;;;;;;5051962;28;20390;-71
2021/08/29 07:30:56;;;;;;;3.63;2.93;;;15.90;99.90;;;;;;5051767;28;20377;-71
2021/08/29 07:33:25;;;;;;;6.43;3.70;;;15.80;99.90;;;;;;5033866;28;20460;-71
2021/08/29 07:36:07;;;;;;;4.40;3.90;;;15.70;99.90;;;;;;5033371;28;20517;-71
2021/08/29 07:38:36;;;;;;;6.50;4.10;;;15.80;99.90;;;;;;5033446;28;20450;-71
2021/08/29 07:41:05;;;;;;;4.30;3.30;;;15.90;99.90;;;;;;5036825;28;20471;-71
2021/08/29 07:43:33;;;;;;;5.20;3.50;;;16.00;99.90;;;;;;5037654;28;20439;-73
2021/08/29 07:46:09;;;;;;;4.17;3.13;;;16.10;99.90;;;;;;5037283;28;20475;-73
2021/08/29 07:48:37;;;;;;;4.03;3.33;;;16.10;99.90;;;;;;5037688;28;20919;-71
2021/08/29 07:51:07;;;;;;;4.97;4.07;;;16.20;99.90;;;;;;5037414;28;20418;-71
2021/08/29 07:54:01;;;;;;;4.20;3.07;;;16.20;99.90;;;;;;5024209;28;20843;-70
2021/08/29 07:57:03;;;;;;;4.90;4.13;;;16.10;99.90;;;;;;5037014;28;20720;-72
2021/08/29 07:59:31;;;;;;;5.90;4.47;;;16.10;99.90;;;;;;5037375;28;20958;-72
2021/08/29 08:02:00;;;;;;;6.30;4.33;;;16.10;99.90;;;;;;5037475;28;21069;-72
2021/08/29 08:04:47;;;;;;;5.87;4.40;;;16.00;99.90;;;;;;5055723;28;20441;-72
2021/08/29 08:07:50;;;;;;;6.40;3.80;;;16.00;99.90;;;;;;5054757;28;20434;-72
2021/08/29 08:10:37;;;;;;;4.73;4.20;;;16.00;99.90;;;;;;5055268;28;20569;-71
2021/08/29 08:13:19;;;;;;;10.93;7.30;;;16.00;99.90;;;;;;5036898;28;20421;-71
2021/08/29 08:15:47;;;;;;;9.80;7.70;;;16.10;99.90;;;;;;5055645;28;20505;-71
2021/08/29 08:18:17;;;;;;;5.60;5.03;;;16.20;99.90;;;;;;5054570;28;20466;-72
2021/08/29 08:20:45;;;;;;;6.90;4.13;;;16.30;99.90;;;;;;5037005;28;20434;-72
2021/08/29 08:23:49;;;;;;;4.93;3.67;;;16.40;99.90;;;;;;5036778;28;20447;-71
2021/08/29 08:26:26;;;;;;;6.50;5.30;;;16.30;99.90;;;;;;5054973;28;20419;-73
2021/08/29 08:29:25;;;;;;;6.60;4.33;;;16.40;99.90;;;;;;4983252;28;20502;-72
2021/08/29 08:32:14;;;;;;;6.23;4.30;;;16.50;99.90;;;;;;5013910;28;20481;-72
2021/08/29 08:34:53;;;;;;;5.40;4.00;;;16.70;99.90;;;;;;5036647;28;20437;-71
2021/08/29 08:37:31;;;;;;;5.20;3.87;;;16.90;99.90;;;;;;5036694;28;20497;-72
2021/08/29 08:40:04;;;;;;;5.30;4.27;;;17.00;99.90;;;;;;5036852;28;20394;-72
2021/08/29 08:42:38;;;;;;;5.00;4.10;;;17.00;99.90;;;;;;5036913;28;20779;-74
2021/08/29 08:45:26;;;;;;;4.83;3.60;;;17.20;99.90;;;;;;5054962;28;20966;-71
2021/08/29 08:48:13;;;;;;;4.90;3.43;;;17.50;99.90;;;;;;5055119;28;21024;-74
2021/08/29 08:51:04;;;;;;;4.30;3.47;;;17.70;99.90;;;;;;5054901;28;20397;-72
2021/08/29 08:53:53;;;;;;;4.80;3.07;;;18.00;99.90;;;;;;5054398;28;20524;-73
2021/08/29 08:57:00;;;;;;;4.63;3.80;;;18.40;99.90;;;;;;5054310;28;20421;-72
2021/08/29 09:00:02;;;;;;;3.40;3.10;;;18.90;99.90;;;;;;5053950;28;20457;-72
2021/08/29 09:03:06;;;;;;;5.00;4.13;;;19.10;99.90;;;;;;4972835;28;20420;-72
2021/08/29 09:05:42;;;;;;;4.30;3.90;;;19.10;99.90;;;;;;5037200;23;21006;-69
2021/08/29 09:08:27;;;;;;;3.70;2.93;;;19.00;99.90;;;;;;5020166;28;20459;-69
2021/08/29 09:10:55;;;;;;;8.50;3.93;;;18.90;99.90;;;;;;5031786;28;20434;-69
2021/08/29 09:13:23;;;;;;;3.37;3.07;;;18.90;99.90;;;;;;5030218;28;20464;-68
2021/08/29 09:16:12;;;;;;;3.07;2.77;;;19.00;99.90;;;;;;5030069;28;20446;-68
2021/08/29 09:18:47;;;;;;;2.60;2.30;;;19.50;99.90;;;;;;5030103;28;20446;-67
2021/08/29 09:21:20;;;;;;;3.87;2.70;;;19.80;99.90;;;;;;5031673;28;20399;-68
2021/08/29 09:23:50;;;;;;;4.27;3.10;;;19.80;56.80;;;;;;5029820;28;20490;-67
2021/08/29 09:26:41;;;;;;;3.53;2.20;;;19.90;23.80;;;;;;5030679;28;20842;-67
2021/08/29 09:29:30;;;;;;;1.97;1.43;;;20.10;99.90;;;;;;5030608;28;20440;-68
2021/08/29 09:32:02;;;;;;;1.77;1.50;;;20.20;99.90;;;;;;5029910;28;20554;-68
2021/08/29 09:34:55;;;;;;;1.83;1.57;;;20.60;1.00;;;;;;5029595;28;20447;-68
2021/08/29 09:37:25;;;;;;;2.80;2.20;;;21.10;99.90;;;;;;4991770;28;20456;-67
2021/08/29 09:40:14;;;;;;;1.90;1.33;;;21.00;99.90;;;;;;4990919;28;20869;-68
2021/08/29 09:43:15;;;;;;;3.40;1.33;;;20.90;99.90;;;;;;4971890;28;20461;-68
2021/08/29 09:45:47;;;;;;;2.20;1.60;;;20.40;99.90;;;;;;4990316;28;20445;-68
2021/08/29 09:48:34;;;;;;;1.47;1.20;;;20.40;99.90;;;;;;4991574;28;20422;-70
2021/08/29 09:51:15;;;;;;;2.13;1.50;;;20.10;99.90;;;;;;4991131;28;20438;-68
2021/08/29 09:53:55;;;;;;;2.27;1.33;;;19.90;99.90;;;;;;4990770;28;20532;-68
2021/08/29 09:56:51;;;;;;;1.40;0.93;;;19.70;99.90;;;;;;4991753;28;20460;-69
2021/08/29 09:59:48;;;;;;;1.40;0.90;;;19.50;99.90;;;;;;4989824;28;20473;-68
2021/08/29 10:02:25;;;;;;;2.30;1.33;;;19.30;99.90;;;;;;4989535;28;20443;-67
2021/08/29 10:05:11;;;;;;;1.37;1.17;;;19.30;1.00;;;;;;4989956;28;20451;-68
2021/08/29 10:08:00;;;;;;;1.57;1.10;;;19.40;1.00;;;;;;4990991;28;20420;-68
2021/08/29 10:10:33;;;;;;;1.80;1.50;;;19.70;1.00;;;;;;5013602;28;20445;-68
2021/08/29 10:13:08;;;;;;;1.23;0.87;;;19.90;1.00;;;;;;4992487;28;20474;-68
2021/08/29 10:15:38;;;;;;;1.67;1.07;;;19.80;99.90;;;;;;4989369;28;20469;-69
2021/08/29 10:18:40;;;;;;;2.07;1.50;;;20.00;99.90;;;;;;4968130;28;20453;-69
2021/08/29 10:21:28;;;;;;;1.50;1.10;;;20.40;99.90;;;;;;5005392;28;20445;-69
2021/08/29 10:23:58;;;;;;;1.40;1.13;;;20.60;99.90;;;;;;5027846;28;20436;-68
2021/08/29 10:26:28;;;;;;;1.50;1.00;;;20.90;99.90;;;;;;5009025;28;20541;-69
2021/08/29 10:29:06;;;;;;;1.90;1.43;;;21.00;99.90;;;;;;5010635;28;21164;-67
2021/08/29 10:32:03;;;;;;;1.63;1.10;;;20.90;99.90;;;;;;5010232;28;20439;-67
2021/08/29 10:34:40;;;;;;;2.13;0.70;;;21.00;99.90;;;;;;5007663;28;20449;-67
2021/08/29 10:37:11;;;;;;;1.50;1.10;;;21.00;99.90;;;;;;4999003;28;20407;-67
2021/08/29 10:39:58;;;;;;;2.83;1.10;;;20.40;99.90;;;;;;4990965;28;20823;-68
2021/08/29 10:42:46;;;;;;;2.80;1.37;;;20.10;99.90;;;;;;4989458;28;20450;-69
2021/08/29 10:45:21;;;;;;;1.10;0.60;;;20.20;99.90;;;;;;4990557;28;20428;-69
2021/08/29 10:48:10;;;;;;;1.10;0.80;;;20.30;99.90;;;;;;4991115;28;20935;-68
2021/08/29 10:50:59;;;;;;;2.00;1.27;;;21.20;99.90;;;;;;4989120;28;20430;-69
2021/08/29 10:53:29;;;;;;;1.20;0.70;;;22.00;99.90;;;;;;5002915;28;20812;-67
2021/08/29 10:56:29;;;;;;;2.20;1.33;;;22.00;99.90;;;;;;4988703;28;21037;-69
2021/08/29 10:59:20;;;;;;;1.20;0.70;;;21.60;99.90;;;;;;5005658;28;20477;-69
2021/08/29 11:01:52;;;;;;;1.27;0.87;;;21.00;99.90;;;;;;5005704;28;20439;-69
2021/08/29 11:04:50;;;;;;;1.10;0.70;;;20.50;99.90;;;;;;4990442;28;20476;-70
2021/08/29 11:07:52;;;;;;;1.90;1.13;;;20.20;99.90;;;;;;4986080;28;20987;-68
2021/08/29 11:10:45;;;;;;;1.23;0.60;;;20.40;99.90;;;;;;5008372;28;20437;-69
2021/08/29 11:13:41;;;;;;;1.93;0.93;;;20.60;99.90;;;;;;5008860;28;20461;-68
2021/08/29 11:16:24;;;;;;;1.73;1.00;;;20.60;99.90;;;;;;5018302;28;20447;-68
2021/08/29 11:19:38;;;;;;;1.53;0.90;;;20.80;99.90;;;;;;4974386;28;20469;-69
2021/08/29 11:22:27;;;;;;;1.20;0.67;;;21.10;99.90;;;;;;4993887;28;20966;-68
2021/08/29 11:25:05;;;;;;;1.10;0.80;;;21.20;99.90;;;;;;4994182;28;20548;-68
2021/08/29 11:28:04;;;;;;;1.30;0.93;;;21.10;99.90;;;;;;5008442;28;20408;-69
2021/08/29 11:30:46;;;;;;;1.97;1.23;;;21.10;99.90;;;;;;4993916;28;20400;-68
2021/08/29 11:33:34;;;;;;;1.83;0.90;;;20.80;99.90;;;;;;5008713;28;20436;-68
2021/08/29 11:36:29;;;;;;;1.70;0.90;;;20.30;99.90;;;;;;5008406;28;20450;-67
2021/08/29 11:39:38;;;;;;;3.17;2.27;;;20.20;99.90;;;;;;5007806;28;20446;-67
2021/08/29 11:42:16;;;;;;;2.20;1.33;;;20.40;99.90;;;;;;4992163;28;20484;-70
2021/08/29 11:44:47;;;;;;;1.20;0.80;;;20.30;99.90;;;;;;5011507;28;20451;-69
2021/08/29 11:47:16;;;;;;;1.53;1.03;;;20.50;99.90;;;;;;5012912;28;20403;-69
2021/08/29 11:49:54;;;;;;;1.20;0.83;;;20.70;99.90;;;;;;5011327;28;20523;-68
2021/08/29 11:52:29;;;;;;;1.53;1.00;;;20.80;99.90;;;;;;5011579;28;20844;-67
2021/08/29 11:55:08;;;;;;;5.23;0.90;;;20.70;99.90;;;;;;5012888;28;20744;-68
2021/08/29 11:57:47;;;;;;;1.20;0.73;;;21.10;99.90;;;;;;5011542;28;20455;-68
2021/08/29 12:00:17;;;;;;;1.30;0.80;;;21.50;99.90;;;;;;5011589;28;20471;-68
2021/08/29 12:02:47;;;;;;;1.57;0.90;;;21.80;99.90;;;;;;5011646;28;21048;-68
2021/08/29 12:05:21;;;;;;;1.00;0.60;;;22.00;99.90;;;;;;5011898;28;20429;-69
2021/08/29 12:08:02;;;;;;;2.10;1.00;;;22.10;99.90;;;;;;5012726;28;20400;-69
2021/08/29 12:10:52;;;;;;;1.10;0.70;;;22.00;99.90;;;;;;5012969;28;20420;-69
2021/08/29 12:13:39;;;;;;;1.20;0.90;;;22.30;99.90;;;;;;5013285;28;20419;-69
2021/08/29 12:16:30;;;;;;;1.10;0.60;;;22.60;99.90;;;;;;4989945;28;20452;-68
2021/08/29 12:19:11;;;;;;;2.23;0.77;;;22.30;99.90;;;;;;4991800;28;20500;-68
2021/08/29 12:22:13;;;;;;;5.13;2.63;;;22.40;99.90;;;;;;4992965;28;20477;-68
2021/08/29 12:24:58;;;;;;;1.20;0.70;;;21.80;99.90;;;;;;4990671;28;20438;-67
2021/08/29 12:27:27;;;;;;;1.70;0.90;;;21.30;99.90;;;;;;4991358;28;20514;-68
2021/08/29 12:29:57;;;;;;;1.10;0.70;;;20.80;99.90;;;;;;4991512;28;20433;-68
2021/08/29 12:32:26;;;;;;;2.30;1.33;;;20.60;99.90;;;;;;4993246;28;20453;-68
2021/08/29 12:34:57;;;;;;;2.30;0.90;;;20.60;99.90;;;;;;4992265;28;20408;-69
2021/08/29 12:37:26;;;;;;;2.33;1.20;;;20.30;99.90;;;;;;4992152;28;20475;-69
2021/08/29 12:40:00;;;;;;;1.60;0.93;;;19.80;99.90;;;;;;4992191;28;21269;-69
2021/08/29 12:42:34;;;;;;;1.73;1.00;;;19.60;99.90;;;;;;4992276;28;20995;-68
2021/08/29 12:45:16;;;;;;;1.60;0.90;;;19.10;99.90;;;;;;4991821;28;20553;-68
2021/08/29 12:47:47;;;;;;;1.27;0.80;;;18.80;99.90;;;;;;4993250;28;20407;-69
2021/08/29 12:50:17;;;;;;;2.67;1.10;;;18.70;99.90;;;;;;4991841;28;20419;-67
2021/08/29 12:52:47;;;;;;;1.53;1.07;;;18.90;99.90;;;;;;4993146;28;20528;-67
2021/08/29 12:55:19;;;;;;;1.53;0.93;;;19.20;99.90;;;;;;5009850;28;20487;-69
2021/08/29 12:57:55;;;;;;;1.40;1.20;;;19.50;99.90;;;;;;5012647;28;20429;-69
2021/08/29 13:00:35;;;;;;;1.60;1.10;;;19.80;99.90;;;;;;5012877;28;20442;-68
2021/08/29 13:03:04;;;;;;;1.90;1.70;;;20.00;99.90;;;;;;5012362;28;20446;-67
2021/08/29 13:05:37;;;;;;;1.73;0.97;;;20.00;99.90;;;;;;5011787;28;20842;-69
2021/08/29 13:08:07;;;;;;;1.90;1.20;;;19.90;99.90;;;;;;5004167;28;20434;-69
2021/08/29 13:10:37;;;;;;;1.57;1.00;;;19.90;99.90;;;;;;5003072;28;20437;-69
2021/08/29 13:13:07;;;;;;;1.83;1.13;;;19.80;99.90;;;;;;5011670;28;20448;-69
2021/08/29 13:15:37;;;;;;;1.80;1.20;;;19.60;99.90;;;;;;5011596;28;20793;-69
2021/08/29 13:18:06;;;;;;;1.50;1.13;;;19.60;99.90;;;;;;5011145;28;20417;-68
2021/08/29 13:20:39;;;;;;;1.77;1.20;;;19.50;99.90;;;;;;5011628;28;20471;-68
2021/08/29 13:23:23;;;;;;;1.43;0.70;;;19.30;99.90;;;;;;5011516;28;20449;-68
2021/08/29 13:25:54;;;;;;;1.73;0.90;;;19.30;99.90;;;;;;5011814;28;20494;-68
2021/08/29 13:28:22;;;;;;;2.33;1.00;;;19.60;99.90;;;;;;5011592;28;20421;-69
2021/08/29 13:31:01;;;;;;;1.63;1.00;;;19.70;99.90;;;;;;5010291;28;20479;-68
2021/08/29 13:33:30;;;;;;;2.20;1.30;;;19.60;99.90;;;;;;5010392;28;20472;-69